Terminal Aerodrome Forecast
Issued by NWS

Home | Current Version | Previous Version | Text Only | Print | Product List | Glossary On
Versions: 1 2 3 4 5 6 7 8 9 10 11 12
775
FTUS43 KEAX 281123
TAFSTJ
TAF
KSTJ 281123Z 2812/2912 VRB02KT P6SM FEW040 SCT200
      TEMPO 2812/2813 00000KT 3SM BR BKN002
     FM281500 36007KT P6SM SCT050=

USA.gov is the U.S. government's official web portal to all federal, state and local government web resources and services.